Time;durP1;ratioP1;P1;durP2;ratioP2;P2;SDS_P1;SDS_P2;PMS_P1;PMS_P2;Temp;Humidity;BMP_temperature;BMP_pressure;BME280_temperature;BME280_humidity;BME280_pressure;Samples;Min_cycle;Max_cycle;Signal;HPM_P1;HPM_P2
2024/02/19 00:01:35;;;;;;;5.40;3.10;;;;;;;-1.03;100.00;101702.70;90034;266;137114;-70
2024/02/19 00:03:37;;;;;;;4.00;3.40;;;;;;;-1.08;100.00;101700.31;90118;274;22244;-70
2024/02/19 00:05:39;;;;;;;3.90;2.20;;;;;;;-1.11;100.00;101699.27;90034;262;136334;-69
2024/02/19 00:07:41;;;;;;;5.20;2.60;;;;;;;-1.12;100.00;101702.28;90082;274;22897;-69
2024/02/19 00:09:44;;;;;;;7.40;2.70;;;;;;;-1.11;100.00;101699.61;90008;273;137909;-69
2024/02/19 00:11:46;;;;;;;4.60;2.30;;;;;;;-1.12;100.00;101702.60;90090;265;23148;-69
2024/02/19 00:13:48;;;;;;;3.40;2.50;;;;;;;-1.10;100.00;101699.92;89958;273;137154;-71
2024/02/19 00:15:50;;;;;;;3.40;2.00;;;;;;;-1.09;100.00;101698.61;90071;266;23134;-69
2024/02/19 00:17:52;;;;;;;4.30;2.50;;;;;;;-1.04;100.00;101699.77;89980;270;136687;-69
2024/02/19 00:19:54;;;;;;;5.00;2.00;;;;;;;-1.03;100.00;101701.46;90116;266;22296;-70
2024/02/19 00:21:55;;;;;;;5.60;2.70;;;;;;;-1.06;100.00;101699.19;90002;266;136100;-69
2024/02/19 00:23:57;;;;;;;5.40;2.20;;;;;;;-1.11;100.00;101693.68;90093;274;23023;-71
2024/02/19 00:26:00;;;;;;;4.20;2.70;;;;;;;-1.13;100.00;101696.93;89987;266;136898;-70
2024/02/19 00:28:02;;;;;;;3.70;2.40;;;;;;;-1.14;100.00;101695.23;89964;266;137618;-65
2024/02/19 00:30:05;;;;;;;1.30;1.20;;;;;;;-1.14;100.00;101695.76;90070;266;22314;-70
2024/02/19 00:32:07;;;;;;;3.60;1.70;;;;;;;-1.15;100.00;101693.71;90287;269;138326;-69
2024/02/19 00:34:09;;;;;;;2.00;1.30;;;;;;;-1.18;100.00;101692.63;90103;265;22966;-70
2024/02/19 00:37:37;;;;;;;5.30;2.10;;;;;;;-1.36;100.00;101695.14;84864;304;603618;-71
2024/02/19 00:39:40;;;;;;;4.70;2.20;;;;;;;-1.38;100.00;101695.94;88883;288;22516;-71
2024/02/19 00:41:41;;;;;;;2.90;1.60;;;;;;;-1.33;100.00;101694.97;88911;287;136752;-69
2024/02/19 00:43:45;;;;;;;2.70;2.40;;;;;;;-1.27;100.00;101696.59;88920;288;22310;-71
2024/02/19 00:45:46;;;;;;;2.20;2.00;;;;;;;-1.23;100.00;101697.24;88807;288;137550;-69
2024/02/19 00:47:48;;;;;;;3.00;1.50;;;;;;;-1.19;100.00;101698.08;88829;284;23005;-69
2024/02/19 00:49:50;;;;;;;3.70;1.60;;;;;;;-1.16;100.00;101701.45;88877;287;136189;-71
2024/02/19 00:51:52;;;;;;;2.30;1.20;;;;;;;-1.16;100.00;101698.63;89113;273;696372;-69
2024/02/19 00:53:54;;;;;;;3.00;1.10;;;;;;;-1.17;100.00;101696.95;89093;284;135543;-68
2024/02/19 00:55:56;;;;;;;3.00;1.10;;;;;;;-1.20;100.00;101697.77;89341;283;22326;-68
2024/02/19 00:57:58;;;;;;;3.60;1.10;;;;;;;-1.24;100.00;101698.35;89783;276;136175;-69
2024/02/19 01:00:00;;;;;;;2.60;1.60;;;;;;;-1.30;100.00;101696.73;90169;265;22600;-68
2024/02/19 01:02:03;;;;;;;2.10;1.90;;;;;;;-1.33;100.00;101696.77;89550;278;136295;-70
2024/02/19 01:04:05;;;;;;;3.20;1.70;;;;;;;-1.34;100.00;101700.14;89710;270;136720;-69
2024/02/19 01:06:07;;;;;;;3.30;1.40;;;;;;;-1.35;100.00;101698.77;89810;270;22380;-70
2024/02/19 01:08:09;;;;;;;0.90;0.90;;;;;;;-1.35;100.00;101695.62;89686;275;138353;-69
2024/02/19 01:10:11;;;;;;;2.30;1.10;;;;;;;-1.33;100.00;101696.23;89694;277;22855;-70
2024/02/19 01:12:14;;;;;;;3.10;1.10;;;;;;;-1.33;100.00;101694.45;89637;270;137886;-72
2024/02/19 01:14:16;;;;;;;2.10;0.90;;;;;;;-1.31;100.00;101696.98;89788;278;22348;-70
2024/02/19 01:16:17;;;;;;;1.30;0.80;;;;;;;-1.28;100.00;101695.09;89653;277;137660;-71
2024/02/19 01:18:20;;;;;;;1.50;1.00;;;;;;;-1.26;100.00;101695.14;89436;274;22562;-70
2024/02/19 01:20:22;;;;;;;2.20;0.80;;;;;;;-1.23;100.00;101691.52;86834;273;136566;-71
2024/02/19 01:22:24;;;;;;;1.80;1.50;;;;;;;-1.25;100.00;101693.85;87012;277;24289;-71
2024/02/19 01:24:26;;;;;;;1.90;1.20;;;;;;;-1.29;100.00;101695.65;86977;273;139147;-70
2024/02/19 01:26:30;;;;;;;1.20;0.70;;;;;;;-1.35;100.00;101697.34;87013;281;25156;-71
2024/02/19 01:28:31;;;;;;;2.00;1.40;;;;;;;-1.42;100.00;101698.91;86980;273;136179;-71
2024/02/19 01:30:33;;;;;;;1.40;1.00;;;;;;;-1.46;100.00;101694.41;87062;269;23954;-69
2024/02/19 01:32:36;;;;;;;2.00;0.80;;;;;;;-1.47;100.00;101693.95;87036;277;136737;-70
2024/02/19 01:34:38;;;;;;;4.50;0.60;;;;;;;-1.47;100.00;101693.77;87216;274;22577;-71
2024/02/19 01:36:40;;;;;;;1.00;1.00;;;;;;;-1.52;100.00;101690.52;87115;273;136582;-69
2024/02/19 01:38:43;;;;;;;1.40;1.10;;;;;;;-1.56;100.00;101694.22;87153;274;22565;-72
2024/02/19 01:40:44;;;;;;;1.20;0.90;;;;;;;-1.61;100.00;101689.95;87007;281;136810;-70
2024/02/19 01:42:46;;;;;;;3.00;0.80;;;;;;;-1.66;100.00;101690.17;87094;274;22565;-71
2024/02/19 01:44:48;;;;;;;1.70;1.00;;;;;;;-1.70;100.00;101688.98;87021;274;136738;-69
2024/02/19 01:46:51;;;;;;;1.70;1.10;;;;;;;-1.70;100.00;101689.33;86930;282;25085;-69
2024/02/19 01:48:53;;;;;;;2.90;1.00;;;;;;;-1.68;100.00;101685.39;86958;269;136515;-68
2024/02/19 01:50:56;;;;;;;2.00;0.80;;;;;;;-1.66;100.00;101687.20;87159;281;25127;-69
2024/02/19 01:53:01;;;;;;;2.20;1.30;;;;;;;-1.68;100.00;101694.83;87287;273;136790;-70
2024/02/19 01:55:03;;;;;;;4.10;1.30;;;;;;;-1.70;100.00;101692.98;87143;268;24055;-73
2024/02/19 01:57:07;;;;;;;1.20;1.00;;;;;;;-1.72;100.00;101689.96;86998;280;136793;-70
2024/02/19 01:59:10;;;;;;;3.20;0.70;;;;;;;-1.78;100.00;101685.02;87095;278;23655;-67
2024/02/19 02:01:15;;;;;;;2.50;1.00;;;;;;;-1.82;100.00;101683.48;87040;274;136736;-71
2024/02/19 02:03:21;;;;;;;4.20;2.20;;;;;;;-1.87;100.00;101680.56;87062;266;23685;-70
2024/02/19 02:05:24;;;;;;;1.10;0.70;;;;;;;-1.83;100.00;101679.35;86951;281;136630;-72
2024/02/19 02:07:26;;;;;;;1.00;0.60;;;;;;;-1.77;100.00;101677.27;87089;274;25092;-72
2024/02/19 02:09:29;;;;;;;1.10;0.80;;;;;;;-1.76;100.00;101677.92;86882;274;136792;-70
2024/02/19 02:11:31;;;;;;;1.40;0.70;;;;;;;-1.77;100.00;101679.19;87010;274;22549;-73
2024/02/19 02:13:36;;;;;;;2.20;0.70;;;;;;;-1.80;100.00;101675.35;87028;273;137096;-71
2024/02/19 02:15:37;;;;;;;1.30;0.80;;;;;;;-1.84;100.00;101671.70;87043;273;22568;-72
2024/02/19 02:17:43;;;;;;;1.90;1.00;;;;;;;-1.85;100.00;101671.94;86914;270;138012;-71
2024/02/19 02:19:46;;;;;;;2.70;0.80;;;;;;;-1.86;100.00;101671.84;87137;281;22930;-73
2024/02/19 02:21:48;;;;;;;1.10;0.70;;;;;;;-1.85;100.00;101671.05;87059;270;137594;-68
2024/02/19 02:23:52;;;;;;;1.50;0.50;;;;;;;-1.86;100.00;101667.28;87079;270;22597;-70
2024/02/19 02:25:54;;;;;;;1.00;0.60;;;;;;;-1.89;100.00;101665.36;86940;275;136553;-71
2024/02/19 02:27:57;;;;;;;1.30;1.20;;;;;;;-1.91;100.00;101661.45;87098;274;22577;-71
2024/02/19 02:30:02;;;;;;;0.80;0.60;;;;;;;-1.91;100.00;101660.05;87051;273;136570;-71
2024/02/19 02:32:06;;;;;;;1.20;0.90;;;;;;;-1.90;100.00;101662.43;87101;277;136898;-68
2024/02/19 02:34:09;;;;;;;1.50;0.70;;;;;;;-1.87;100.00;101662.13;86880;280;22580;-69
2024/02/19 02:36:12;;;;;;;1.60;1.10;;;;;;;-1.86;100.00;101666.21;87091;278;138424;-69
2024/02/19 02:38:15;;;;;;;2.60;1.10;;;;;;;-1.88;100.00;101665.13;87164;274;25096;-69
2024/02/19 02:40:16;;;;;;;2.40;1.00;;;;;;;-1.87;100.00;101662.65;86956;274;137413;-69
2024/02/19 02:42:19;;;;;;;2.60;1.60;;;;;;;-1.82;100.00;101662.20;87108;282;22561;-73
2024/02/19 02:44:20;;;;;;;1.80;1.00;;;;;;;-1.79;100.00;101658.05;87042;282;136972;-71
2024/02/19 02:46:22;;;;;;;2.60;0.80;;;;;;;-1.78;100.00;101656.60;87089;282;25085;-72
2024/02/19 02:48:24;;;;;;;1.30;1.10;;;;;;;-1.80;100.00;101657.41;86974;275;136752;-71
2024/02/19 02:50:28;;;;;;;2.70;1.20;;;;;;;-1.83;100.00;101658.77;87194;274;22553;-69
2024/02/19 02:52:31;;;;;;;2.30;0.90;;;;;;;-1.83;100.00;101658.08;87013;269;137805;-70
2024/02/19 02:54:33;;;;;;;1.10;0.90;;;;;;;-1.84;100.00;101658.98;87195;277;24013;-74
2024/02/19 02:56:35;;;;;;;1.40;1.00;;;;;;;-1.82;100.00;101659.45;86943;274;136644;-72
2024/02/19 02:58:37;;;;;;;0.70;0.60;;;;;;;-1.81;100.00;101659.20;87229;279;25086;-70
2024/02/19 03:00:39;;;;;;;0.90;0.70;;;;;;;-1.79;100.00;101655.77;86982;281;136732;-69
2024/02/19 03:02:41;;;;;;;2.60;1.70;;;;;;;-1.82;100.00;101657.30;87042;281;25936;-73
2024/02/19 03:04:43;;;;;;;3.40;1.10;;;;;;;-1.85;100.00;101655.19;86865;281;136723;-70
2024/02/19 03:06:45;;;;;;;1.30;1.00;;;;;;;-1.86;100.00;101657.52;87069;276;25099;-72
2024/02/19 03:08:48;;;;;;;2.20;0.60;;;;;;;-1.88;100.00;101659.01;86824;275;136533;-69
2024/02/19 03:10:50;;;;;;;3.60;1.00;;;;;;;-1.88;100.00;101653.83;87098;274;22561;-69
2024/02/19 03:12:52;;;;;;;2.40;1.00;;;;;;;-1.89;100.00;101655.23;87117;274;138163;-70
2024/02/19 03:14:54;;;;;;;1.90;0.90;;;;;;;-1.91;100.00;101654.45;87127;274;25130;-69
2024/02/19 03:16:56;;;;;;;0.70;0.50;;;;;;;-1.95;100.00;101654.83;86974;270;136426;-69
2024/02/19 03:18:59;;;;;;;2.90;0.80;;;;;;;-1.98;100.00;101650.95;86950;275;22657;-67
2024/02/19 03:21:04;;;;;;;2.50;0.80;;;;;;;-2.01;100.00;101656.19;87033;270;137139;-68
2024/02/19 03:23:06;;;;;;;3.30;1.00;;;;;;;-2.05;100.00;101666.15;87313;273;24151;-70
2024/02/19 03:25:08;;;;;;;0.60;0.60;;;;;;;-2.10;100.00;101671.61;87046;265;136822;-70
2024/02/19 03:27:11;;;;;;;0.90;0.60;;;;;;;-2.16;100.00;101669.79;87118;277;24014;-69
2024/02/19 03:29:13;;;;;;;1.90;1.20;;;;;;;-2.21;100.00;101670.37;86989;269;137067;-70
2024/02/19 03:31:18;;;;;;;1.60;0.60;;;;;;;-2.22;100.00;101668.85;87128;273;25127;-68
2024/02/19 03:33:20;;;;;;;1.60;0.60;;;;;;;-2.21;100.00;101667.04;87265;271;137053;-69
2024/02/19 03:35:24;;;;;;;1.80;0.80;;;;;;;-2.17;100.00;101665.29;87388;275;24267;-67
2024/02/19 03:37:26;;;;;;;1.40;1.10;;;;;;;-2.14;100.00;101664.82;87030;268;136839;-70
2024/02/19 03:39:28;;;;;;;1.60;0.70;;;;;;;-2.12;100.00;101671.00;87135;268;25127;-68
2024/02/19 03:41:30;;;;;;;2.70;1.00;;;;;;;-2.11;100.00;101669.55;87189;271;136910;-69
2024/02/19 03:43:33;;;;;;;1.80;1.10;;;;;;;-2.08;100.00;101673.06;87184;267;22569;-69
2024/02/19 03:45:35;;;;;;;0.90;0.80;;;;;;;-2.06;100.00;101674.70;87256;267;136933;-70
2024/02/19 03:47:37;;;;;;;1.10;0.80;;;;;;;-2.04;100.00;101674.95;87254;267;25102;-68
2024/02/19 03:49:38;;;;;;;5.30;2.00;;;;;;;-2.03;100.00;101675.43;87215;267;136730;-69
2024/02/19 03:51:40;;;;;;;2.80;1.50;;;;;;;-2.03;100.00;101674.18;87245;263;22577;-71
2024/02/19 03:53:42;;;;;;;2.70;1.30;;;;;;;-2.00;100.00;101680.52;87076;268;137367;-70
2024/02/19 03:55:44;;;;;;;3.30;1.60;;;;;;;-1.97;100.00;101672.35;87152;272;21611;-69
2024/02/19 03:57:45;;;;;;;2.60;1.10;;;;;;;-1.94;100.00;101671.52;87157;268;136786;-67
2024/02/19 03:59:50;;;;;;;2.80;1.60;;;;;;;-1.93;100.00;101668.19;87320;267;25121;-69
2024/02/19 04:01:52;;;;;;;2.50;1.20;;;;;;;-1.94;100.00;101677.28;86967;269;136611;-71
2024/02/19 04:03:54;;;;;;;2.30;2.00;;;;;;;-1.98;100.00;101669.08;87301;267;25134;-72
2024/02/19 04:05:56;;;;;;;1.60;1.20;;;;;;;-2.03;100.00;101674.39;87202;266;136907;-69
2024/02/19 04:07:58;;;;;;;3.30;1.20;;;;;;;-2.08;100.00;101672.20;87307;270;22572;-72
2024/02/19 04:10:00;;;;;;;2.20;1.20;;;;;;;-2.13;100.00;101665.80;87363;267;136589;-72
2024/02/19 04:12:04;;;;;;;2.50;0.70;;;;;;;-2.14;100.00;101664.14;87374;278;22564;-68
2024/02/19 04:14:06;;;;;;;2.70;1.30;;;;;;;-2.14;100.00;101668.30;87356;272;22658;-70
2024/02/19 04:16:09;;;;;;;1.40;1.10;;;;;;;-2.14;100.00;101667.44;87102;279;137289;-68
2024/02/19 04:18:11;;;;;;;3.50;1.20;;;;;;;-2.17;100.00;101669.66;87259;279;22571;-67
2024/02/19 04:20:15;;;;;;;1.90;1.80;;;;;;;-2.21;100.00;101672.11;87145;279;138679;-70
2024/02/19 04:22:17;;;;;;;2.40;1.10;;;;;;;-2.21;100.00;101673.31;87173;275;25255;-69
2024/02/19 04:24:19;;;;;;;1.40;0.60;;;;;;;-2.20;100.00;101667.86;87118;271;138500;-69
2024/02/19 04:26:21;;;;;;;2.80;1.00;;;;;;;-2.18;100.00;101664.80;87130;272;22594;-70
2024/02/19 04:28:23;;;;;;;1.40;0.60;;;;;;;-2.16;100.00;101664.02;86968;269;136831;-70
2024/02/19 04:30:25;;;;;;;1.30;0.90;;;;;;;-2.19;100.00;101665.55;87295;275;22555;-71
2024/02/19 04:32:27;;;;;;;3.10;1.90;;;;;;;-2.21;100.00;101664.61;87095;271;136326;-70
2024/02/19 04:34:29;;;;;;;1.00;0.90;;;;;;;-2.24;100.00;101663.55;87156;272;22558;-72
2024/02/19 04:36:31;;;;;;;7.40;2.00;;;;;;;-2.26;100.00;101661.18;87042;275;136332;-72
2024/02/19 04:38:33;;;;;;;3.70;1.40;;;;;;;-2.28;100.00;101661.48;87502;268;25085;-72
2024/02/19 04:40:35;;;;;;;2.90;1.10;;;;;;;-2.33;100.00;101665.19;87111;280;138577;-78
2024/02/19 04:42:37;;;;;;;2.50;1.10;;;;;;;-2.37;100.00;101665.23;87376;272;22575;-79
2024/02/19 04:44:39;;;;;;;0.90;0.50;;;;;;;-2.41;100.00;101666.93;87256;279;138562;-67
2024/02/19 04:46:41;;;;;;;2.00;1.00;;;;;;;-2.42;100.00;101673.12;87277;268;23134;-78
2024/02/19 04:48:43;;;;;;;3.10;0.90;;;;;;;-2.42;100.00;101669.09;87208;271;137038;-80
2024/02/19 04:50:45;;;;;;;1.90;1.10;;;;;;;-2.41;100.00;101677.05;87362;267;25019;-71
2024/02/19 04:52:47;;;;;;;1.40;1.20;;;;;;;-2.42;100.00;101674.84;87401;267;137387;-77
2024/02/19 04:54:49;;;;;;;1.50;1.40;;;;;;;-2.44;100.00;101672.49;87333;271;22584;-74
2024/02/19 04:56:50;;;;;;;1.50;1.40;;;;;;;-2.46;100.00;101672.60;87232;269;136398;-73
2024/02/19 04:58:52;;;;;;;2.90;2.70;;;;;;;-2.50;100.00;101678.69;87416;278;25236;-69
2024/02/19 05:00:54;;;;;;;2.00;1.80;;;;;;;-2.55;100.00;101676.14;87247;275;136632;-68
2024/02/19 05:02:56;;;;;;;2.60;1.70;;;;;;;-2.60;100.00;101675.15;87275;275;24810;-70
2024/02/19 05:04:57;;;;;;;3.40;1.80;;;;;;;-2.65;100.00;101674.51;87150;271;137089;-70
2024/02/19 05:07:00;;;;;;;2.60;1.20;;;;;;;-2.69;100.00;101673.48;86979;273;24823;-69
2024/02/19 05:09:02;;;;;;;2.90;1.40;;;;;;;-2.75;100.00;101678.44;87089;268;137281;-70
2024/02/19 05:11:04;;;;;;;1.70;1.40;;;;;;;-2.80;100.00;101680.05;87370;271;25172;-69
2024/02/19 05:13:07;;;;;;;4.20;2.10;;;;;;;-2.82;100.00;101679.46;87084;267;137048;-68
2024/02/19 05:15:09;;;;;;;4.00;2.70;;;;;;;-2.84;100.00;101678.50;87224;271;22825;-68
2024/02/19 05:17:11;;;;;;;2.30;1.80;;;;;;;-2.83;100.00;101675.65;87080;266;137922;-71
2024/02/19 05:19:13;;;;;;;5.90;2.30;;;;;;;-2.78;100.00;101677.00;87245;271;22545;-68
2024/02/19 05:21:15;;;;;;;2.50;2.20;;;;;;;-2.68;100.00;101676.55;87021;272;137190;-67
2024/02/19 05:23:17;;;;;;;1.90;1.70;;;;;;;-2.50;100.00;101675.39;87374;271;22918;-68
2024/02/19 05:25:19;;;;;;;3.40;1.80;;;;;;;-2.22;100.00;101674.98;87063;271;137036;-67
2024/02/19 05:27:24;;;;;;;2.80;1.90;;;;;;;-1.79;100.00;101673.75;87221;279;25192;-70
2024/02/19 05:29:26;;;;;;;4.70;2.20;;;;;;;-1.19;100.00;101677.36;87293;271;137165;-70
2024/02/19 05:31:35;;;;;;;1.80;1.10;;;;;;;-0.57;100.00;101674.08;86998;267;26367;-69
2024/02/19 05:33:37;;;;;;;2.90;2.20;;;;;;;0.07;100.00;101677.67;87178;271;136651;-69
2024/02/19 05:35:39;;;;;;;1.50;1.40;;;;;;;0.58;100.00;101679.61;87201;271;24862;-68
2024/02/19 05:37:41;;;;;;;3.80;1.70;;;;;;;1.15;100.00;101681.83;87147;280;137880;-69
2024/02/19 05:39:43;;;;;;;3.60;1.40;;;;;;;1.74;100.00;101680.23;87227;267;22653;-67
2024/02/19 05:41:47;;;;;;;2.40;0.80;;;;;;;2.34;100.00;101673.20;87390;275;137747;-69
2024/02/19 05:43:49;;;;;;;4.10;1.80;;;;;;;2.94;100.00;101677.17;87208;271;22567;-71
2024/02/19 05:45:52;;;;;;;3.40;1.80;;;;;;;3.51;100.00;101675.84;87274;271;136296;-71
2024/02/19 05:47:54;;;;;;;2.10;1.40;;;;;;;3.94;98.28;101674.55;87531;267;25082;-69
2024/02/19 05:49:57;;;;;;;2.60;1.90;;;;;;;4.20;94.71;101676.68;87160;278;137203;-71
2024/02/19 05:51:59;;;;;;;2.10;1.20;;;;;;;4.30;91.97;101675.55;87355;279;22666;-69
2024/02/19 05:54:01;;;;;;;1.60;1.10;;;;;;;4.39;90.72;101681.27;87475;276;136946;-70
2024/02/19 05:56:04;;;;;;;2.60;1.50;;;;;;;4.58;89.04;101683.31;87354;270;136332;-70
2024/02/19 05:58:06;;;;;;;4.40;1.50;;;;;;;4.80;86.17;101681.44;87663;277;24036;-67
2024/02/19 06:00:13;;;;;;;6.50;1.40;;;;;;;5.02;83.86;101684.37;87493;279;137715;-70
2024/02/19 06:02:15;;;;;;;2.10;1.30;;;;;;;5.32;83.76;101685.95;89001;268;23510;-70
2024/02/19 06:04:18;;;;;;;3.70;1.90;;;;;;;5.71;81.29;101686.48;87858;272;136197;-68
2024/02/19 06:06:20;;;;;;;1.80;0.90;;;;;;;6.08;79.73;101679.67;87569;271;25162;-68
2024/02/19 06:08:22;;;;;;;4.60;1.60;;;;;;;6.52;76.49;101679.42;87338;271;136031;-69
2024/02/19 06:10:24;;;;;;;2.20;1.40;;;;;;;6.95;73.99;101678.73;87206;271;22738;-69
2024/02/19 06:12:26;;;;;;;3.30;1.40;;;;;;;7.34;69.70;101681.73;87045;275;136138;-71
2024/02/19 06:14:27;;;;;;;1.70;0.90;;;;;;;7.59;65.35;101680.08;87276;271;24122;-68
2024/02/19 06:16:29;;;;;;;2.10;0.90;;;;;;;7.65;59.10;101681.12;87169;278;135864;-70
2024/02/19 06:18:31;;;;;;;2.80;0.80;;;;;;;7.37;57.70;101676.52;87133;272;25346;-69
2024/02/19 06:20:34;;;;;;;1.80;0.50;;;;;;;6.86;55.75;101677.39;87470;268;136183;-70
2024/02/19 06:22:36;;;;;;;1.80;0.90;;;;;;;6.22;55.73;101673.91;87102;275;22567;-68
2024/02/19 06:24:38;;;;;;;3.90;1.20;;;;;;;5.57;56.47;101677.74;86919;272;137463;-68
2024/02/19 06:26:40;;;;;;;1.70;1.50;;;;;;;4.87;58.08;101680.05;86949;277;25284;-69
2024/02/19 06:28:42;;;;;;;3.10;1.00;;;;;;;4.31;59.50;101681.33;86983;272;136006;-68
2024/02/19 06:30:44;;;;;;;1.80;1.00;;;;;;;3.82;60.91;101679.23;87213;278;25235;-71
2024/02/19 06:32:46;;;;;;;1.90;0.70;;;;;;;3.45;61.36;101684.20;86969;279;135928;-67
2024/02/19 06:34:48;;;;;;;1.80;1.10;;;;;;;3.08;61.61;101682.73;87031;275;22565;-68
2024/02/19 06:36:50;;;;;;;2.30;0.80;;;;;;;2.71;62.54;101686.36;86972;279;135847;-69
2024/02/19 06:38:52;;;;;;;2.60;0.60;;;;;;;2.41;63.54;101684.31;86860;273;23755;-68
2024/02/19 06:40:56;;;;;;;3.60;1.10;;;;;;;2.15;64.37;101687.77;86925;270;136188;-69
2024/02/19 06:42:57;;;;;;;3.30;1.00;;;;;;;1.91;64.94;101690.91;87255;279;22527;-68
2024/02/19 06:45:00;;;;;;;2.20;1.20;;;;;;;1.69;65.29;101689.13;87203;271;137358;-71
2024/02/19 06:47:03;;;;;;;1.80;1.70;;;;;;;1.53;66.00;101695.90;86996;272;25333;-71
2024/02/19 06:49:05;;;;;;;1.90;1.60;;;;;;;1.41;66.57;101694.22;87402;278;135968;-68
2024/02/19 06:51:07;;;;;;;5.50;1.90;;;;;;;1.30;67.56;101695.58;87260;267;22576;-71
2024/02/19 06:53:09;;;;;;;5.10;1.60;;;;;;;1.22;68.32;101695.20;86885;267;135686;-70
2024/02/19 06:55:15;;;;;;;2.50;1.70;;;;;;;1.13;68.66;101690.69;86864;273;22847;-72
2024/02/19 06:57:18;;;;;;;3.00;2.50;;;;;;;1.01;69.08;101689.54;87025;268;136278;-69
2024/02/19 06:59:20;;;;;;;3.90;3.40;;;;;;;0.88;69.63;101689.41;87233;266;24043;-66
2024/02/19 07:01:21;;;;;;;5.40;2.90;;;;;;;0.78;70.23;101690.01;86970;268;137045;-72
2024/02/19 07:03:24;;;;;;;4.10;2.90;;;;;;;0.69;71.05;101686.37;86999;277;24493;-70
2024/02/19 07:05:26;;;;;;;2.80;2.60;;;;;;;0.66;71.97;101685.80;87289;271;135928;-68
2024/02/19 07:07:28;;;;;;;3.60;3.10;;;;;;;0.65;72.32;101686.06;87163;271;25256;-68
2024/02/19 07:09:30;;;;;;;3.90;3.30;;;;;;;0.58;72.41;101687.34;87220;274;135812;-68
2024/02/19 07:11:32;;;;;;;4.60;2.70;;;;;;;0.54;72.97;101683.34;86952;280;24010;-71
2024/02/19 07:13:37;;;;;;;5.10;3.80;;;;;;;0.52;73.18;101685.55;87074;278;136058;-68
2024/02/19 07:15:39;;;;;;;5.40;4.00;;;;;;;0.52;73.21;101685.41;87091;276;22601;-69
2024/02/19 07:17:41;;;;;;;5.00;3.80;;;;;;;0.51;73.04;101683.39;87145;272;135586;-69
2024/02/19 07:19:43;;;;;;;4.50;2.90;;;;;;;0.46;72.98;101682.25;87026;275;24023;-71
2024/02/19 07:21:45;;;;;;;10.40;4.10;;;;;;;0.38;73.06;101679.39;86974;279;136028;-68
2024/02/19 07:23:47;;;;;;;7.30;4.40;;;;;;;0.35;73.82;101680.08;87160;271;24026;-69
2024/02/19 07:25:48;;;;;;;6.00;3.90;;;;;;;0.37;74.30;101676.52;86793;272;135990;-69
2024/02/19 07:27:52;;;;;;;5.80;3.90;;;;;;;0.38;73.96;101677.48;87032;272;25095;-68
2024/02/19 07:29:54;;;;;;;7.60;4.20;;;;;;;0.38;73.88;101677.81;86898;272;136455;-70
2024/02/19 07:31:56;;;;;;;6.20;4.10;;;;;;;0.35;73.79;101677.31;87054;272;23726;-69
2024/02/19 07:33:58;;;;;;;4.10;3.40;;;;;;;0.33;73.80;101675.63;87071;279;135957;-69
2024/02/19 07:36:01;;;;;;;7.10;3.20;;;;;;;0.37;73.63;101678.39;87171;279;25082;-69
2024/02/19 07:38:04;;;;;;;4.60;3.60;;;;;;;0.44;73.70;101677.52;87051;272;25246;-65
2024/02/19 07:40:07;;;;;;;6.10;3.50;;;;;;;0.48;73.50;101677.75;87121;268;136182;-67
2024/02/19 07:42:09;;;;;;;9.60;5.00;;;;;;;0.48;73.11;101676.91;87131;280;25121;-67
2024/02/19 07:44:11;;;;;;;8.40;4.80;;;;;;;0.49;73.17;101678.08;87442;263;136168;-67
2024/02/19 07:46:13;;;;;;;5.10;3.30;;;;;;;0.53;72.64;101676.05;87204;271;22632;-67
2024/02/19 07:48:15;;;;;;;6.60;3.30;;;;;;;0.54;72.18;101678.63;86970;271;135685;-67
2024/02/19 07:50:18;;;;;;;7.40;2.90;;;;;;;0.51;72.03;101680.36;87078;272;25245;-67
2024/02/19 07:52:19;;;;;;;7.10;3.50;;;;;;;0.51;71.90;101674.64;87087;275;137109;-68
2024/02/19 07:54:21;;;;;;;4.40;2.80;;;;;;;0.54;71.79;101677.09;87072;279;25114;-67
2024/02/19 07:56:23;;;;;;;8.70;5.70;;;;;;;0.60;71.89;101678.31;86967;272;135964;-68
2024/02/19 07:58:25;;;;;;;7.50;5.40;;;;;;;0.68;70.72;101681.30;87291;267;25181;-68
2024/02/19 08:00:28;;;;;;;6.10;4.00;;;;;;;0.73;70.69;101677.88;86653;274;136607;-65
2024/02/19 08:02:29;;;;;;;9.20;3.80;;;;;;;0.78;69.87;101679.31;87032;278;22498;-68
2024/02/19 08:04:31;;;;;;;6.10;3.00;;;;;;;0.81;69.31;101674.80;87054;271;140159;-67
2024/02/19 08:06:33;;;;;;;10.00;4.40;;;;;;;0.82;69.00;101670.32;87090;269;25146;-66
2024/02/19 08:08:36;;;;;;;25.50;6.70;;;;;;;0.83;68.46;101670.10;87119;269;135996;-66
2024/02/19 08:10:38;;;;;;;9.40;5.60;;;;;;;0.81;68.17;101673.54;86769;273;22616;-69
2024/02/19 08:12:39;;;;;;;12.20;5.20;;;;;;;0.78;68.15;101674.73;86793;275;135849;-70
2024/02/19 08:14:44;;;;;;;7.90;4.10;;;;;;;0.76;68.12;101672.41;86855;267;24708;-69
2024/02/19 08:16:49;;;;;;;11.30;6.30;;;;;;;0.74;68.24;101668.89;86752;271;135693;-68
2024/02/19 08:18:52;;;;;;;8.90;5.10;;;;;;;0.75;68.53;101668.64;86986;279;22589;-66
2024/02/19 08:20:54;;;;;;;6.90;5.20;;;;;;;0.76;68.20;101666.30;89892;267;135943;-69
2024/02/19 08:22:58;;;;;;;9.80;5.40;;;;;;;0.78;68.15;101663.95;90074;267;22214;-68
2024/02/19 08:25:00;;;;;;;15.00;6.00;;;;;;;0.82;67.94;101662.85;88699;264;135599;-68
2024/02/19 08:27:02;;;;;;;4.70;3.50;;;;;;;0.88;68.16;101663.13;87091;279;23002;-68
2024/02/19 08:29:06;;;;;;;6.30;3.80;;;;;;;0.97;67.46;101660.34;87010;278;137040;-67
2024/02/19 08:31:07;;;;;;;5.40;3.40;;;;;;;1.07;67.27;101660.97;87302;267;25154;-67
2024/02/19 08:33:09;;;;;;;5.30;2.50;;;;;;;1.18;67.08;101658.16;86838;272;135669;-69
2024/02/19 08:35:11;;;;;;;8.30;3.00;;;;;;;1.26;66.20;101661.32;86853;273;22605;-68
2024/02/19 08:37:17;;;;;;;3.10;2.00;;;;;;;1.31;65.87;101658.73;87057;273;135498;-67
2024/02/19 08:39:20;;;;;;;2.30;1.90;;;;;;;1.35;62.43;101657.44;87378;267;25091;-66
2024/02/19 08:41:24;;;;;;;2.60;1.80;;;;;;;1.32;59.53;101659.54;86958;263;136084;-67
2024/02/19 08:43:26;;;;;;;1.60;1.10;;;;;;;1.28;59.40;101657.36;87194;269;24000;-65
2024/02/19 08:45:28;;;;;;;4.00;2.60;;;;;;;1.31;58.48;101657.02;86736;274;135857;-66
2024/02/19 08:47:38;;;;;;;3.90;2.80;;;;;;;1.34;58.07;101655.73;86778;273;24016;-67
2024/02/19 08:49:41;;;;;;;0.90;0.70;;;;;;;1.37;55.83;101651.20;87028;268;135695;-67
2024/02/19 08:51:43;;;;;;;1.10;0.40;;;;;;;1.34;52.95;101657.36;86554;276;690797;-66
2024/02/19 08:53:45;;;;;;;1.50;0.60;;;;;;;1.29;51.36;101654.71;86788;271;136086;-63
2024/02/19 08:55:55;;;;;;;0.30;0.20;;;;;;;1.27;50.66;101652.73;87016;271;24010;-66
2024/02/19 08:57:57;;;;;;;0.90;0.40;;;;;;;1.27;50.34;101652.71;87011;278;135506;-68
2024/02/19 09:00:00;;;;;;;1.00;0.20;;;;;;;1.30;49.29;101651.65;87414;269;22571;-66
2024/02/19 09:02:03;;;;;;;0.60;0.40;;;;;;;1.33;48.65;101656.19;86863;267;135375;-67
2024/02/19 09:04:05;;;;;;;0.30;0.10;;;;;;;1.33;48.26;101656.50;87005;269;136584;-67
2024/02/19 09:06:07;;;;;;;0.30;0.10;;;;;;;1.32;47.80;101656.58;87058;276;22562;-68
2024/02/19 09:08:12;;;;;;;0.60;0.10;;;;;;;1.34;46.20;101658.77;86878;267;137106;-68
2024/02/19 09:10:14;;;;;;;0.20;0.10;;;;;;;1.37;46.29;101658.94;87071;271;25334;-68
2024/02/19 09:12:16;;;;;;;0.60;0.10;;;;;;;1.38;46.34;101654.64;86859;273;135288;-69
2024/02/19 09:14:18;;;;;;;0.10;0.10;;;;;;;1.39;46.32;101653.55;87067;267;26014;-64
2024/02/19 09:16:20;;;;;;;0.30;0.10;;;;;;;1.41;46.64;101651.86;87024;275;136241;-67
2024/02/19 09:18:22;;;;;;;0.70;0.30;;;;;;;1.47;44.61;101658.15;87179;271;22599;-66
2024/02/19 09:20:24;;;;;;;1.30;0.20;;;;;;;1.50;45.36;101650.60;86994;275;135911;-68
2024/02/19 09:22:27;;;;;;;0.20;0.20;;;;;;;1.52;45.87;101649.75;86923;269;22567;-67
2024/02/19 09:24:29;;;;;;;1.10;0.30;;;;;;;1.52;46.26;101651.31;87266;278;136231;-66
2024/02/19 09:26:31;;;;;;;0.70;0.60;;;;;;;1.50;46.34;101649.71;87018;272;22545;-67
2024/02/19 09:28:33;;;;;;;0.70;0.20;;;;;;;1.52;46.50;101646.78;86830;279;137477;-66
2024/02/19 09:30:35;;;;;;;0.70;0.20;;;;;;;1.55;45.17;101646.73;86840;274;24477;-65
2024/02/19 09:32:37;;;;;;;8.10;6.00;;;;;;;1.55;45.44;101643.96;86834;276;136253;-67